Time;durP1;ratioP1;P1;durP2;ratioP2;P2;SDS_P1;SDS_P2;PMS_P1;PMS_P2;Temp;Humidity;BMP_temperature;BMP_pressure;BME280_temperature;BME280_humidity;BME280_pressure;Samples;Min_cycle;Max_cycle;Signal;HPM_P1;HPM_P2
2022/03/15 00:01:35;41918.00;0.14;73.21;0.00;0.00;0.62;;;;;13.70;1.00;;;;;;2272511;61;1125;-87
2022/03/15 00:04:02;398953.00;1.33;688.01;0.00;0.00;0.62;;;;;13.70;1.00;;;;;;2272351;61;1617;-87
2022/03/15 00:06:29;175934.00;0.59;304.49;0.00;0.00;0.62;;;;;14.00;1.00;;;;;;2272471;61;1000;-88
2022/03/15 00:08:57;263397.00;0.88;454.99;42841.00;0.14;74.80;;;;;14.10;1.00;;;;;;2272405;61;2026;-89
2022/03/15 00:11:24;128603.00;0.43;222.92;0.00;0.00;0.62;;;;;14.30;1.00;;;;;;2272400;61;1139;-88
2022/03/15 00:13:52;167559.00;0.56;290.06;0.00;0.00;0.62;;;;;14.40;1.00;;;;;;2272437;61;1221;-87
2022/03/15 00:16:19;93318.00;0.31;162.04;0.00;0.00;0.62;;;;;14.20;1.00;;;;;;2272359;61;1460;-87
2022/03/15 00:18:46;112813.00;0.38;195.68;0.00;0.00;0.62;;;;;14.10;1.00;;;;;;2272363;61;1434;-88
2022/03/15 00:21:13;235350.00;0.78;406.75;0.00;0.00;0.62;;;;;13.60;1.00;;;;;;2272316;61;1418;-88
2022/03/15 00:23:42;281276.00;0.94;485.73;65945.00;0.22;114.75;;;;;12.90;1.00;;;;;;2272340;61;1350;-88
2022/03/15 00:26:15;206275.00;0.69;356.72;0.00;0.00;0.62;;;;;13.30;1.00;;;;;;2272308;61;1530;-87
2022/03/15 00:28:45;366594.00;1.22;632.38;0.00;0.00;0.62;;;;;13.30;1.00;;;;;;2272303;61;2017;-87
2022/03/15 00:31:16;313978.00;1.05;541.95;8122.00;0.03;14.70;;;;;13.50;1.00;;;;;;2272218;61;1374;-87
2022/03/15 00:33:43;206993.00;0.69;357.96;0.00;0.00;0.62;;;;;13.40;1.00;;;;;;2272222;61;1557;-86
2022/03/15 00:36:10;24547.00;0.08;43.14;0.00;0.00;0.62;;;;;13.30;1.00;;;;;;2272260;61;2010;-88
2022/03/15 00:38:37;369770.00;1.23;637.84;53720.00;0.18;93.62;;;;;13.80;1.00;;;;;;2272352;61;967;-87
2022/03/15 00:41:04;86289.00;0.29;149.90;0.00;0.00;0.62;;;;;13.90;1.00;;;;;;2272261;61;1020;-87
2022/03/15 00:43:33;126165.00;0.42;218.72;0.00;0.00;0.62;;;;;13.80;1.00;;;;;;2272255;61;1623;-87
2022/03/15 00:46:00;52619.00;0.18;91.72;0.00;0.00;0.62;;;;;13.90;1.00;;;;;;2272256;61;1262;-87
2022/03/15 00:48:27;338343.00;1.13;583.83;0.00;0.00;0.62;;;;;13.90;1.00;;;;;;2272260;61;1618;-86
2022/03/15 00:50:54;40034.00;0.13;69.95;0.00;0.00;0.62;;;;;13.00;1.00;;;;;;2272303;61;1928;-88
2022/03/15 00:53:21;109289.00;0.36;189.60;0.00;0.00;0.62;;;;;12.80;1.00;;;;;;2272320;61;1118;-87
2022/03/15 00:55:48;99584.00;0.33;172.85;0.00;0.00;0.62;;;;;12.70;1.00;;;;;;2272266;61;1347;-86
2022/03/15 00:58:15;38577.00;0.13;67.43;0.00;0.00;0.62;;;;;12.50;1.00;;;;;;2272275;61;1030;-87
2022/03/15 01:00:48;249046.00;0.83;430.31;63041.00;0.21;109.73;;;;;12.80;1.00;;;;;;2272332;61;984;-86
2022/03/15 01:03:15;70283.00;0.23;122.25;0.00;0.00;0.62;;;;;12.80;1.00;;;;;;2272235;61;1019;-88
2022/03/15 01:05:42;35577.00;0.12;62.24;0.00;0.00;0.62;;;;;13.00;1.00;;;;;;2272238;61;1378;-85
2022/03/15 01:08:09;170481.00;0.57;295.10;0.00;0.00;0.62;;;;;12.10;1.00;;;;;;2272262;61;1062;-87
2022/03/15 01:10:37;116648.00;0.39;202.30;0.00;0.00;0.62;;;;;11.50;1.00;;;;;;2272214;61;1997;-89
2022/03/15 01:13:04;143717.00;0.48;248.98;0.00;0.00;0.62;;;;;11.90;1.00;;;;;;2272222;61;1077;-88
2022/03/15 01:15:35;109958.00;0.37;190.76;0.00;0.00;0.62;;;;;12.50;1.00;;;;;;2272201;61;1317;-88
2022/03/15 01:18:03;208488.00;0.69;360.53;39905.00;0.13;69.72;;;;;12.90;1.00;;;;;;2272259;61;1063;-87
2022/03/15 01:20:30;29277.00;0.10;51.33;0.00;0.00;0.62;;;;;13.20;1.00;;;;;;2272141;61;1027;-87
2022/03/15 01:22:58;252853.00;0.84;436.86;18259.00;0.06;32.26;;;;;13.30;1.00;;;;;;2272284;61;1055;-88
2022/03/15 01:25:25;116866.00;0.39;202.68;0.00;0.00;0.62;;;;;13.50;1.00;;;;;;2272249;61;1387;-88
2022/03/15 01:27:52;146934.00;0.49;254.52;0.00;0.00;0.62;;;;;12.90;1.00;;;;;;2272090;61;983;-89
2022/03/15 01:30:23;253.00;0.00;1.06;0.00;0.00;0.62;;;;;12.40;1.00;;;;;;2272168;61;1985;-87
2022/03/15 01:32:51;215121.00;0.72;371.95;0.00;0.00;0.62;;;;;12.90;1.00;;;;;;2272161;61;1026;-89
2022/03/15 01:35:25;192251.00;0.64;332.58;0.00;0.00;0.62;;;;;13.60;1.00;;;;;;2272115;61;1286;-88
2022/03/15 01:37:54;193519.00;0.65;334.77;0.00;0.00;0.62;;;;;13.90;1.00;;;;;;2272094;61;1612;-87
2022/03/15 01:40:23;316845.00;1.06;546.88;0.00;0.00;0.62;;;;;13.80;1.00;;;;;;2272108;61;1492;-88
2022/03/15 01:42:52;212146.00;0.71;366.83;0.00;0.00;0.62;;;;;13.50;1.00;;;;;;2272115;61;2171;-88
2022/03/15 01:45:30;131689.00;0.44;228.24;0.00;0.00;0.62;;;;;13.10;1.00;;;;;;2272106;61;1369;-87
2022/03/15 01:47:57;177331.00;0.59;306.89;0.00;0.00;0.62;;;;;13.30;1.00;;;;;;2272086;61;1665;-86
2022/03/15 01:50:32;294071.00;0.98;507.73;0.00;0.00;0.62;;;;;13.60;1.00;;;;;;2272113;61;2006;-87
2022/03/15 01:53:02;162234.00;0.54;280.89;0.00;0.00;0.62;;;;;13.50;1.00;;;;;;2272094;61;1797;-87
2022/03/15 01:55:32;196631.00;0.66;340.12;0.00;0.00;0.62;;;;;13.30;1.00;;;;;;2272022;61;1456;-89
2022/03/15 01:57:59;269643.00;0.90;465.73;0.00;0.00;0.62;;;;;13.40;1.00;;;;;;2272052;61;1473;-87
2022/03/15 02:00:26;65733.00;0.22;114.39;0.00;0.00;0.62;;;;;13.50;1.00;;;;;;2272130;61;1130;-88
2022/03/15 02:02:55;265624.00;0.89;458.82;57663.00;0.19;100.44;;;;;12.90;1.00;;;;;;2272101;61;1044;-88
2022/03/15 02:05:22;112841.00;0.38;195.73;0.00;0.00;0.62;;;;;13.00;1.00;;;;;;2272051;61;1369;-86
2022/03/15 02:07:53;89097.00;0.30;154.75;0.00;0.00;0.62;;;;;12.60;1.00;;;;;;2272099;61;1013;-85
2022/03/15 02:10:20;211449.00;0.70;365.63;0.00;0.00;0.62;;;;;12.80;1.00;;;;;;2272027;61;1922;-87
2022/03/15 02:12:47;286476.00;0.95;494.67;0.00;0.00;0.62;;;;;12.90;1.00;;;;;;2272006;61;1486;-88
2022/03/15 02:15:17;132338.00;0.44;229.36;0.00;0.00;0.62;;;;;13.30;1.00;;;;;;2271964;61;1549;-88
2022/03/15 02:17:44;110047.00;0.37;190.91;0.00;0.00;0.62;;;;;13.30;1.00;;;;;;2271992;61;1439;-87
2022/03/15 02:20:16;600162.00;2.00;1034.50;101938.00;0.34;176.92;;;;;13.10;1.00;;;;;;2271943;61;1553;-89
2022/03/15 02:22:43;206162.00;0.69;356.53;0.00;0.00;0.62;;;;;12.90;1.00;;;;;;2272002;61;1499;-88
2022/03/15 02:25:13;287331.00;0.96;496.14;35095.00;0.12;61.40;;;;;13.10;1.00;;;;;;2271941;61;1427;-86
2022/03/15 02:27:41;183981.00;0.61;318.34;0.00;0.00;0.62;;;;;13.60;1.00;;;;;;2272071;61;1085;-88
2022/03/15 02:30:09;167417.00;0.56;289.82;37015.00;0.12;64.72;;;;;13.80;1.00;;;;;;2271991;61;1993;-88
2022/03/15 02:32:38;206531.00;0.69;357.17;35555.00;0.12;62.20;;;;;13.20;1.00;;;;;;2272009;61;1098;-86
2022/03/15 02:35:06;89891.00;0.30;156.12;14038.00;0.05;24.94;;;;;12.60;1.00;;;;;;2271965;61;1462;-87
2022/03/15 02:37:34;110393.00;0.37;191.51;0.00;0.00;0.62;;;;;12.70;1.00;;;;;;2271975;61;1548;-87
2022/03/15 02:40:02;15582.00;0.05;27.62;0.00;0.00;0.62;;;;;12.50;1.00;;;;;;2271978;61;925;-86
2022/03/15 02:42:29;365845.00;1.22;631.10;0.00;0.00;0.62;;;;;11.20;1.00;;;;;;2271949;61;1464;-86
2022/03/15 02:44:56;272886.00;0.91;471.31;0.00;0.00;0.62;;;;;10.20;1.00;;;;;;2271624;61;1604;-86
2022/03/15 02:47:23;245186.00;0.82;423.67;0.00;0.00;0.62;;;;;10.00;1.00;;;;;;2271997;61;1063;-87
2022/03/15 02:49:53;64468.00;0.21;112.20;0.00;0.00;0.62;;;;;10.20;1.00;;;;;;2272594;61;1907;-87
2022/03/15 02:52:20;27511.00;0.09;48.27;0.00;0.00;0.62;;;;;10.10;1.00;;;;;;2272737;61;1078;-86
2022/03/15 02:54:49;244502.00;0.82;422.49;27847.00;0.09;48.86;;;;;9.80;1.00;;;;;;2272612;61;1360;-87
2022/03/15 02:57:20;118440192.00;394.80;67303264.00;38356.00;0.13;67.04;;;;;9.90;1.00;;;;;;2272676;61;1119;-86
2022/03/15 02:59:48;324590.00;1.08;560.19;38644.00;0.13;67.54;;;;;10.00;1.00;;;;;;2272633;61;1620;-86
2022/03/15 03:02:15;129829.00;0.43;225.03;5910.00;0.02;10.86;;;;;9.70;1.00;;;;;;2272581;61;1098;-87
2022/03/15 03:04:47;141415.00;0.47;245.01;0.00;0.00;0.62;;;;;10.10;1.00;;;;;;2272616;61;1382;-86
2022/03/15 03:07:15;364980.00;1.22;629.61;64540.00;0.22;112.32;;;;;10.10;1.00;;;;;;2272594;61;1438;-88
2022/03/15 03:09:47;243940.00;0.81;421.53;0.00;0.00;0.62;;;;;10.70;1.00;;;;;;2272492;61;1931;-87
2022/03/15 03:12:31;264816.00;0.88;457.43;0.00;0.00;0.62;;;;;10.50;1.00;;;;;;2272530;61;1581;-87
2022/03/15 03:15:01;506376.00;1.69;872.80;82761.00;0.28;143.81;;;;;10.90;1.00;;;;;;2272577;61;1467;-90
2022/03/15 03:17:31;620779.00;2.07;1070.11;129343.00;0.43;224.20;;;;;11.20;1.00;;;;;;2272457;61;2087;-87
2022/03/15 03:19:58;509371.00;1.70;877.96;84820.00;0.28;147.36;;;;;11.60;1.00;;;;;;2272525;61;2203;-87
2022/03/15 03:22:25;375334.00;1.25;647.41;85883.00;0.29;149.20;;;;;12.10;1.00;;;;;;2272615;61;942;-87
2022/03/15 03:25:00;563254.00;1.88;970.81;134280.00;0.45;232.71;;;;;11.60;1.00;;;;;;2272489;61;1357;-86
2022/03/15 03:27:28;581877.00;1.94;1002.94;89132.00;0.30;154.81;;;;;11.20;1.00;;;;;;2272511;61;2127;-88
2022/03/15 03:29:59;690053.00;2.30;1189.99;164939.00;0.55;285.55;;;;;11.00;1.00;;;;;;2272545;61;1915;-86
2022/03/15 03:32:26;474485.00;1.58;817.91;104011.00;0.35;180.49;;;;;10.90;1.00;;;;;;2272537;61;1118;-87
2022/03/15 03:34:53;400900.00;1.34;691.35;82743.00;0.28;143.78;;;;;11.10;1.00;;;;;;2272540;61;1381;-88
2022/03/15 03:37:21;378582.00;1.26;652.99;87990.00;0.29;152.84;;;;;11.00;1.00;;;;;;2272603;61;1024;-87
2022/03/15 03:39:48;478707.00;1.60;825.17;118846.00;0.40;206.09;;;;;11.20;1.00;;;;;;2272530;61;1028;-89
2022/03/15 03:42:21;372392.00;1.24;642.35;88075.00;0.29;152.98;;;;;11.10;1.00;;;;;;2272565;61;1051;-87
2022/03/15 03:44:57;1127199.00;3.76;1959.13;121832.00;0.41;211.24;;;;;11.00;1.00;;;;;;2272405;61;2182;-85
2022/03/15 03:47:27;1092785.00;3.64;1897.53;87398.00;0.29;151.81;;;;;10.80;1.00;;;;;;2272417;61;1704;-86
2022/03/15 03:49:55;1252541.00;4.18;2185.51;106149.00;0.35;184.18;;;;;10.60;1.00;;;;;;2272441;61;2025;-86
2022/03/15 03:52:22;1039117.00;3.46;1801.88;32382.00;0.11;56.71;;;;;10.50;1.00;;;;;;2272512;61;1184;-89
2022/03/15 03:54:52;953244.00;3.18;1649.83;40858.00;0.14;71.37;;;;;10.60;1.00;;;;;;2272390;61;1250;-85
2022/03/15 03:57:22;783573.00;2.61;1352.49;0.00;0.00;0.62;;;;;10.90;1.00;;;;;;2272475;61;916;-86
2022/03/15 03:59:56;463577.00;1.55;799.14;0.00;0.00;0.62;;;;;10.70;1.00;;;;;;2272267;61;1148;-85
2022/03/15 04:02:27;721416.00;2.40;1244.40;21727.00;0.07;38.26;;;;;10.90;1.00;;;;;;2272391;61;1470;-87
2022/03/15 04:04:54;238650.00;0.80;412.43;0.00;0.00;0.62;;;;;10.80;1.00;;;;;;2272425;61;1462;-85
2022/03/15 04:07:21;906366.00;3.02;1567.30;85502.00;0.29;148.54;;;;;10.90;1.00;;;;;;2272357;61;1430;-86
2022/03/15 04:09:48;668830.00;2.23;1153.23;23779.00;0.08;41.81;;;;;10.50;1.00;;;;;;2272350;61;1618;-85
2022/03/15 04:12:21;892221.00;2.97;1542.46;22113.00;0.07;38.93;;;;;10.10;1.00;;;;;;2272348;61;2256;-86
2022/03/15 04:14:48;184960.00;0.62;320.03;0.00;0.00;0.62;;;;;10.20;1.00;;;;;;2272315;61;1578;-86
2022/03/15 04:17:18;83144.00;0.28;144.47;0.00;0.00;0.62;;;;;10.40;1.00;;;;;;2272375;61;1007;-86
2022/03/15 04:19:55;198355.00;0.66;343.09;0.00;0.00;0.62;;;;;10.50;1.00;;;;;;2272276;61;1365;-87
2022/03/15 04:22:27;238658.00;0.80;412.44;0.00;0.00;0.62;;;;;10.40;1.00;;;;;;2272273;61;1444;-86
2022/03/15 04:24:56;155504.00;0.52;269.29;0.00;0.00;0.62;;;;;10.20;1.00;;;;;;2272362;61;1554;-86
2022/03/15 04:27:25;495310.00;1.65;853.75;9974.00;0.03;17.90;;;;;10.20;1.00;;;;;;2272357;61;1495;-85
2022/03/15 04:29:55;177874.00;0.59;307.83;0.00;0.00;0.62;;;;;9.80;1.00;;;;;;2272336;61;1488;-85
2022/03/15 04:32:24;237454.00;0.79;410.37;3038.00;0.01;5.89;;;;;9.90;1.00;;;;;;2272277;61;2031;-86
2022/03/15 04:34:56;276773.00;0.92;477.99;0.00;0.00;0.62;;;;;9.90;1.00;;;;;;2272213;61;1604;-84
2022/03/15 04:37:24;294944.00;0.98;509.23;31337.00;0.10;54.90;;;;;9.80;1.00;;;;;;2272247;61;1589;-86
2022/03/15 04:39:58;242384.00;0.81;418.85;0.00;0.00;0.62;;;;;9.80;1.00;;;;;;2272346;61;938;-86
2022/03/15 04:42:28;226348.00;0.75;391.27;0.00;0.00;0.62;;;;;9.90;1.00;;;;;;2272291;61;1426;-86
2022/03/15 04:44:57;623748.00;2.08;1075.24;27047.00;0.09;47.47;;;;;10.40;1.00;;;;;;2272277;61;1395;-86
2022/03/15 04:47:29;366969.00;1.22;633.03;48056.00;0.16;83.82;;;;;10.90;1.00;;;;;;2272330;61;1634;-87
2022/03/15 04:49:59;493282.00;1.64;850.26;0.00;0.00;0.62;;;;;11.30;1.00;;;;;;2272259;61;1671;-87
2022/03/15 04:52:27;175821.00;0.59;304.29;0.00;0.00;0.62;;;;;11.70;1.00;;;;;;2272226;61;1926;-87
2022/03/15 04:54:59;375131.00;1.25;647.06;0.00;0.00;0.62;;;;;11.60;1.00;;;;;;2272204;61;1434;-88
2022/03/15 04:57:26;422296.00;1.41;728.14;0.00;0.00;0.62;;;;;11.70;1.00;;;;;;2272327;61;987;-87
2022/03/15 04:59:53;233402.00;0.78;403.40;0.00;0.00;0.62;;;;;12.00;1.00;;;;;;2272324;61;936;-86
2022/03/15 05:02:20;47679.00;0.16;83.17;0.00;0.00;0.62;;;;;11.70;1.00;;;;;;2272277;61;1106;-87
2022/03/15 05:04:48;0.00;0.00;0.62;0.00;0.00;0.62;;;;;11.50;1.00;;;;;;2272233;61;1253;-87
2022/03/15 05:07:15;684885.00;2.28;1181.04;37704.00;0.13;65.92;;;;;11.60;1.00;;;;;;2272254;61;1113;-89
2022/03/15 05:12:25;433296.00;1.44;747.05;35019.00;0.12;61.27;;;;;11.60;1.00;;;;;;2271965;61;1997;-87
2022/03/15 05:14:53;41873.00;0.14;73.13;0.00;0.00;0.62;;;;;12.10;1.00;;;;;;2272162;61;1605;-88
2022/03/15 05:17:20;90676.00;0.30;157.47;0.00;0.00;0.62;;;;;12.30;1.00;;;;;;2272228;61;1147;-87
2022/03/15 05:19:49;18296.00;0.06;32.32;0.00;0.00;0.62;;;;;11.90;1.00;;;;;;2272221;61;1102;-89
2022/03/15 05:22:17;307461.00;1.02;530.75;23137.00;0.08;40.70;;;;;11.60;1.00;;;;;;2272119;61;1597;-88
2022/03/15 05:24:44;157569.00;0.53;272.85;0.00;0.00;0.62;;;;;11.60;1.00;;;;;;2272120;61;1347;-87
2022/03/15 05:27:11;31769.00;0.11;55.64;0.00;0.00;0.62;;;;;11.20;1.00;;;;;;2272198;61;1161;-87
2022/03/15 05:29:38;230736.00;0.77;398.81;0.00;0.00;0.62;;;;;11.50;1.00;;;;;;2272198;61;1129;-86
2022/03/15 05:32:06;384554.00;1.28;663.25;0.00;0.00;0.62;;;;;11.80;1.00;;;;;;2272063;61;1988;-87
2022/03/15 05:34:34;335863.00;1.12;579.56;22616.00;0.08;39.80;;;;;11.90;1.00;;;;;;2272086;61;1328;-86
2022/03/15 05:37:02;349019.00;1.16;602.18;57088.00;0.19;99.44;;;;;11.90;1.00;;;;;;2271954;61;1652;-86
2022/03/15 05:39:29;219924.00;0.73;380.21;0.00;0.00;0.62;;;;;11.80;1.00;;;;;;2272109;61;1015;-87
2022/03/15 05:41:56;448872.00;1.50;773.84;0.00;0.00;0.62;;;;;11.90;1.00;;;;;;2272034;61;1601;-87
2022/03/15 05:44:24;24686.00;0.08;43.38;0.00;0.00;0.62;;;;;11.70;1.00;;;;;;2272128;61;1346;-87
2022/03/15 05:46:51;60610.00;0.20;105.53;0.00;0.00;0.62;;;;;11.50;1.00;;;;;;2272072;61;1560;-88
2022/03/15 05:49:19;239668.00;0.80;414.18;0.00;0.00;0.62;;;;;11.30;1.00;;;;;;2272094;61;1159;-87
2022/03/15 05:51:49;510655.00;1.70;880.17;57864.00;0.19;100.78;;;;;11.20;1.00;;;;;;2272048;61;1990;-86
2022/03/15 05:54:18;347530.00;1.16;599.62;0.00;0.00;0.62;;;;;11.20;1.00;;;;;;2272061;61;1420;-85
2022/03/15 05:56:45;12574.00;0.04;22.41;0.00;0.00;0.62;;;;;11.00;1.00;;;;;;2272079;61;1628;-86
2022/03/15 05:59:15;147179.00;0.49;254.95;0.00;0.00;0.62;;;;;11.10;1.00;;;;;;2272020;61;1610;-86
2022/03/15 06:01:46;297506.00;0.99;513.63;29970.00;0.10;52.53;;;;;11.30;1.00;;;;;;2271943;61;1335;-86
2022/03/15 06:04:17;452010.00;1.51;779.24;94790.00;0.32;164.58;;;;;11.30;1.00;;;;;;2272000;61;1771;-86
2022/03/15 06:06:45;137933.00;0.46;239.01;0.00;0.00;0.62;;;;;11.40;1.00;;;;;;2271971;61;1442;-86
2022/03/15 06:09:12;122722.00;0.41;212.78;0.00;0.00;0.62;;;;;11.40;1.00;;;;;;2271998;61;1455;-86
2022/03/15 06:11:49;228132.00;0.76;394.34;0.00;0.00;0.62;;;;;11.00;1.00;;;;;;2271985;61;2000;-86
2022/03/15 06:14:16;161941.00;0.54;280.38;0.00;0.00;0.62;;;;;11.20;1.00;;;;;;2271882;61;1588;-85
2022/03/15 06:16:45;1004467.00;3.35;1740.39;193541.00;0.65;334.80;;;;;11.20;1.00;;;;;;2271939;61;1644;-86
2022/03/15 06:19:15;391110.00;1.30;674.52;65859.00;0.22;114.60;;;;;11.50;1.00;;;;;;2272071;61;1110;-85
2022/03/15 06:21:43;369376.00;1.23;637.16;0.00;0.00;0.62;;;;;11.70;1.00;;;;;;2271993;61;1098;-86
2022/03/15 06:24:11;424414.00;1.41;731.78;0.00;0.00;0.62;;;;;11.50;1.00;;;;;;2272671;61;1526;-86
2022/03/15 06:26:42;205717.00;0.69;355.76;0.00;0.00;0.62;;;;;11.20;1.00;;;;;;2272685;61;1035;-86
2022/03/15 06:29:09;187645.00;0.63;324.65;0.00;0.00;0.62;;;;;11.20;1.00;;;;;;2272630;61;1521;-86
2022/03/15 06:31:37;56805.00;0.19;98.95;0.00;0.00;0.62;;;;;11.40;1.00;;;;;;2272687;61;1935;-86
2022/03/15 06:34:07;92543.00;0.31;160.70;0.00;0.00;0.62;;;;;11.40;1.00;;;;;;2272627;61;1256;-86
2022/03/15 06:36:35;162449.00;0.54;281.26;0.00;0.00;0.62;;;;;11.60;1.00;;;;;;2272637;61;1092;-87
2022/03/15 06:39:03;264317.00;0.88;456.57;26895.00;0.09;47.21;;;;;11.90;1.00;;;;;;2272626;61;2153;-88
2022/03/15 06:41:30;103631.00;0.35;179.84;0.00;0.00;0.62;;;;;11.90;1.00;;;;;;2272652;61;1724;-87
2022/03/15 06:43:59;130401.00;0.43;226.02;0.00;0.00;0.62;;;;;12.00;1.00;;;;;;2272617;61;1111;-87
2022/03/15 06:46:26;196543.00;0.66;339.97;0.00;0.00;0.62;;;;;11.50;1.00;;;;;;2272675;61;1511;-88
2022/03/15 06:48:54;456873.00;1.52;787.61;77866.00;0.26;135.35;;;;;11.10;1.00;;;;;;2272596;61;2285;-87
2022/03/15 06:51:21;295462.00;0.98;510.12;10239.00;0.03;18.36;;;;;11.10;1.00;;;;;;2272528;61;1933;-87
2022/03/15 06:53:48;9055.00;0.03;16.31;0.00;0.00;0.62;;;;;11.00;1.00;;;;;;2272623;61;1544;-87
2022/03/15 06:56:15;502270.00;1.67;865.73;4655.00;0.02;8.69;;;;;11.30;1.00;;;;;;2272640;61;1439;-88
2022/03/15 06:58:43;172221.00;0.57;298.09;12686.00;0.04;22.60;;;;;11.50;1.00;;;;;;2272510;61;1028;-87
2022/03/15 07:01:12;198742.00;0.66;343.76;0.00;0.00;0.62;;;;;12.20;1.00;;;;;;2272618;61;1119;-88
2022/03/15 07:03:39;135333.00;0.45;234.52;0.00;0.00;0.62;;;;;12.60;1.00;;;;;;2272621;61;2114;-87
2022/03/15 07:06:06;2439.00;0.01;4.85;0.00;0.00;0.62;;;;;12.80;1.00;;;;;;2272532;61;1277;-88
2022/03/15 07:08:33;0.00;0.00;0.62;0.00;0.00;0.62;;;;;13.30;1.00;;;;;;2272595;61;1762;-87
2022/03/15 07:11:00;42131.00;0.14;73.58;0.00;0.00;0.62;;;;;13.60;1.00;;;;;;2272592;61;1992;-88
2022/03/15 07:13:26;0.00;0.00;0.62;0.00;0.00;0.62;;;;;13.30;1.00;;;;;;2272628;61;1094;-87
2022/03/15 07:15:53;52210.00;0.17;91.01;0.00;0.00;0.62;;;;;13.50;1.00;;;;;;2272398;61;1274;-87
2022/03/15 07:18:31;153542.00;0.51;265.91;0.00;0.00;0.62;;;;;13.80;1.00;;;;;;2272533;61;1519;-89
2022/03/15 07:21:02;513099.00;1.71;884.38;38438.00;0.13;67.19;;;;;13.80;1.00;;;;;;2272311;61;1422;-87
2022/03/15 07:23:31;234999.00;0.78;406.15;0.00;0.00;0.62;;;;;14.10;1.00;;;;;;2272203;61;1908;-89
2022/03/15 07:25:58;981398.00;3.27;1699.55;15079.00;0.05;26.75;;;;;14.30;1.00;;;;;;2272210;61;1485;-89
2022/03/15 07:28:25;592571.00;1.98;1021.39;37852.00;0.13;66.17;;;;;14.30;1.00;;;;;;2272385;61;1484;-89
2022/03/15 07:30:59;1633717.00;5.45;2897.35;55001.00;0.18;95.83;;;;;14.20;1.00;;;;;;2272515;61;2193;-88
2022/03/15 07:33:36;1289617.00;4.30;2253.12;205841.00;0.69;355.98;;;;;14.10;1.00;;;;;;2272267;61;1682;-89
2022/03/15 07:36:05;639805.00;2.13;1103.00;75069.00;0.25;130.52;;;;;14.10;1.00;;;;;;2272515;61;1542;-89
2022/03/15 07:38:36;567000.00;1.89;977.27;80833.00;0.27;140.48;;;;;14.30;1.00;;;;;;2272574;61;1495;-89
2022/03/15 07:41:06;334617.00;1.12;577.42;0.00;0.00;0.62;;;;;14.10;1.00;;;;;;2272641;61;1003;-88
2022/03/15 07:43:41;357558.00;1.19;616.85;0.00;0.00;0.62;;;;;13.90;1.00;;;;;;2272520;61;1616;-87
2022/03/15 07:46:10;344759.00;1.15;594.85;1035.00;0.00;2.41;;;;;14.00;1.00;;;;;;2272389;61;1588;-89
2022/03/15 07:51:23;392424.00;1.31;676.78;116078.00;0.39;201.32;;;;;14.10;1.00;;;;;;2272408;61;1923;-88
2022/03/15 07:53:52;362963.00;1.21;626.14;0.00;0.00;0.62;;;;;14.00;1.00;;;;;;2269393;55;3773;-88
2022/03/15 07:56:19;119534560.00;398.45;69187904.00;119156736.00;397.19;68533312.00;;;;;14.10;1.00;;;;;;2268846;61;1684;-88
2022/03/15 07:58:48;468354.00;1.56;807.36;94865.00;0.32;164.71;;;;;14.00;1.00;;;;;;2268217;61;1500;-88
2022/03/15 08:01:18;202480.00;0.67;350.19;0.00;0.00;0.62;;;;;14.40;1.00;;;;;;2268283;61;986;-87
2022/03/15 08:03:49;445619.00;1.49;768.25;26867.00;0.09;47.16;;;;;14.00;1.00;;;;;;2268332;61;1714;-86
2022/03/15 08:06:17;315314.00;1.05;544.24;0.00;0.00;0.62;;;;;13.20;1.00;;;;;;2268183;61;1400;-87
2022/03/15 08:12:26;327154.00;1.09;564.59;0.00;0.00;0.62;;;;;13.20;1.00;;;;;;2278260;55;3556;-86
2022/03/15 08:14:58;1394289.00;4.65;2445.74;44518.00;0.15;77.70;;;;;13.40;1.00;;;;;;2283122;40;3599;-88
2022/03/15 08:25:37;48697.00;0.16;84.93;0.00;0.00;0.62;;;;;14.00;1.00;;;;;;2282340;60;1621;-87
2022/03/15 08:28:05;211049.00;0.70;364.94;0.00;0.00;0.62;;;;;14.50;1.00;;;;;;2284186;60;1066;-88
2022/03/15 08:30:32;230122.00;0.77;397.76;39439.00;0.13;68.92;;;;;14.60;1.00;;;;;;2284556;60;1233;-89
2022/03/15 08:33:00;384436.00;1.28;663.05;30379.00;0.10;53.24;;;;;14.40;1.00;;;;;;2284343;60;1923;-89
2022/03/15 08:44:04;146873.00;0.49;254.42;6976.00;0.02;12.71;;;;;14.80;1.00;;;;;;2281765;40;4035;-89
2022/03/15 08:46:31;150527.00;0.50;260.72;0.00;0.00;0.62;;;;;14.80;1.00;;;;;;2280027;61;1905;-88
2022/03/15 08:51:35;438359.00;1.46;755.76;0.00;0.00;0.62;;;;;14.70;1.00;;;;;;2281975;61;1977;-89
2022/03/15 08:54:04;340300.00;1.13;587.19;0.00;0.00;0.62;;;;;14.70;1.00;;;;;;2280243;61;1574;-87
2022/03/15 08:56:35;65759.00;0.22;114.43;0.00;0.00;0.62;;;;;15.00;1.00;;;;;;2280247;61;969;-87
2022/03/15 08:59:12;47629.00;0.16;83.09;0.00;0.00;0.62;;;;;14.90;1.00;;;;;;2280333;61;1350;-87
2022/03/15 09:07:04;908743.00;3.03;1571.48;0.00;0.00;0.62;;;;;14.90;1.00;;;;;;2276090;61;1710;-88
2022/03/15 09:22:37;562105.00;1.87;968.83;0.00;0.00;0.62;;;;;15.00;1.00;;;;;;1783913;56;3099;-88
2022/03/15 10:11:24;1553981.00;5.18;2745.11;116484.00;0.39;202.02;;;;;13.80;1.00;;;;;;2277678;61;1347;-87
2022/03/15 10:16:22;760910.00;2.54;1313.03;0.00;0.00;0.62;;;;;13.30;1.00;;;;;;2312925;40;3561;-90
2022/03/15 10:18:59;228742.00;0.76;395.38;0.00;0.00;0.62;;;;;13.10;1.00;;;;;;2277456;61;1394;-88
2022/03/15 10:26:28;911225.00;3.04;1575.84;0.00;0.00;0.62;;;;;12.90;1.00;;;;;;2294024;40;3622;-88
2022/03/15 10:28:56;341731.00;1.14;589.65;36243.00;0.12;63.39;;;;;12.70;1.00;;;;;;2280674;61;1568;-85
2022/03/15 10:31:24;205310.00;0.68;355.06;0.00;0.00;0.62;;;;;12.60;1.00;;;;;;2280618;61;968;-87
2022/03/15 10:33:52;440379.00;1.47;759.23;99345.00;0.33;172.44;;;;;13.10;1.00;;;;;;2289831;40;3506;-86
2022/03/15 10:36:22;470222.00;1.57;810.57;0.00;0.00;0.62;;;;;13.20;1.00;;;;;;2298570;56;3945;-87
2022/03/15 10:38:51;440038.00;1.47;758.65;53090.00;0.18;92.53;;;;;13.10;1.00;;;;;;2290107;56;3795;-87
2022/03/15 10:44:21;118934296.00;396.45;68149880.00;0.00;0.00;0.62;;;;;13.30;1.00;;;;;;2282448;60;1411;-89
2022/03/15 10:47:08;254693.00;0.85;440.02;0.00;0.00;0.62;;;;;13.70;1.00;;;;;;2374843;40;3597;-87
2022/03/15 10:52:05;1271308.00;4.24;2219.69;54392.00;0.18;94.78;;;;;14.30;1.00;;;;;;2323638;56;3585;-91
2022/03/15 10:54:35;275090.00;0.92;475.10;0.00;0.00;0.62;;;;;14.60;1.00;;;;;;2285386;61;1538;-88
2022/03/15 10:57:05;306783.00;1.02;529.58;0.00;0.00;0.62;;;;;14.70;1.00;;;;;;2285403;61;1487;-89
2022/03/15 10:59:41;372523.00;1.24;642.57;0.00;0.00;0.62;;;;;14.70;1.00;;;;;;2285474;61;1614;-89
2022/03/15 11:02:15;168335.00;0.56;291.40;0.00;0.00;0.62;;;;;14.40;1.00;;;;;;2286856;55;3791;-89
2022/03/15 11:04:49;222864.00;0.74;385.27;0.00;0.00;0.62;;;;;14.50;1.00;;;;;;2280425;60;1254;-87
2022/03/15 11:09:57;1282660.00;4.28;2240.41;0.00;0.00;0.62;;;;;14.60;1.00;;;;;;2288305;40;3457;-87
2022/03/15 11:12:26;145674.00;0.49;252.35;0.00;0.00;0.62;;;;;14.80;1.00;;;;;;2280381;60;2010;-88
2022/03/15 11:14:59;193746.00;0.65;335.16;0.00;0.00;0.62;;;;;15.00;1.00;;;;;;2285291;40;3573;-90
2022/03/15 11:17:28;267055.00;0.89;461.28;0.00;0.00;0.62;;;;;15.10;1.00;;;;;;2287626;40;3573;-87
2022/03/15 11:19:56;237712.00;0.79;410.82;0.00;0.00;0.62;;;;;14.80;1.00;;;;;;2302627;40;3871;-88
2022/03/15 11:22:26;405701.00;1.35;699.61;1029.00;0.00;2.40;;;;;14.90;1.00;;;;;;2284443;60;1605;-89
2022/03/15 12:10:24;1399245.00;4.66;2454.92;1431.00;0.00;3.10;;;;;15.00;1.00;;;;;;2492750;40;3592;31
2022/03/15 13:16:23;1305045.00;4.35;2281.34;0.00;0.00;0.62;;;;;15.60;1.00;;;;;;2258952;61;1362;-89
2022/03/15 13:23:54;1527426.00;5.09;2694.83;0.00;0.00;0.62;;;;;15.60;1.00;;;;;;2258798;61;1930;-89
2022/03/15 14:35:19;1540408.00;5.13;2719.39;78419.00;0.26;136.31;;;;;15.10;1.00;;;;;;2258801;61;1375;-89
2022/03/15 14:37:48;1101462.00;3.67;1913.04;128363.00;0.43;222.51;;;;;15.70;1.00;;;;;;2386296;40;3752;-90
2022/03/15 15:10:55;1729967.00;5.77;3083.80;134015.00;0.45;232.25;;;;;15.90;1.00;;;;;;1862879;41;3209;-89
2022/03/15 15:20:57;1371739.00;4.57;2404.01;98274.00;0.33;170.59;;;;;15.90;1.00;;;;;;2258128;61;1335;-89
2022/03/15 15:23:24;472704.00;1.58;814.84;85146.00;0.28;147.93;;;;;15.90;1.00;;;;;;2256755;61;1912;-89
2022/03/15 15:25:53;567165.00;1.89;977.56;79842.00;0.27;138.76;;;;;15.90;1.00;;;;;;2256727;61;1225;-89